BGBWCYYR

Guest
Details From BGBW - Narsarsuaq
To CYYR - Goose Bay
Flight Number -
Tags decoded
Created
Modified
Stats Distance 678 nm / 1,257 km
Max Altitude 0 ft / 0 m
Waypoints 6
Social Downloads 1
Likes 0
Share VATSIM

Download

Looking for another format? Having issues loading an existing format? Contact us
Advertisement - Login to hide

Notes

Requested: BGBW NS SI JC YYR CYYR

Route

BGBW NS SI JC YYR CYYR

ID Type Via Altitude Latitude Longitude Leg Dist Tot Dist Heading (true) Name
O BGBW APT - 0 ft / 0 m 61.16052˚ -45.42598˚ - 0 nm - Narsarsuaq
NS NDB - 0 ft / 0 m 60.90000˚ -46.01667˚ 23 nm 23 nm 228° / 227° NARSAQ NDB
SI NDB - 0 ft / 0 m 60.68167˚ -46.59611˚ 21 nm 44 nm 233° / 232° SIMIUTAQ NDB
JC NDB - 0 ft / 0 m 54.17711˚ -58.43083˚ 545 nm 589 nm 230° / 220° RIGOLET NDB
YYR VOR - 0 ft / 0 m 53.31972˚ -60.29472˚ 83 nm 673 nm 233° / 231° GOOSE VOR-DME
O CYYR APT - 0 ft / 0 m 53.31882˚ -60.42389˚ 4 nm 678 nm 269° / 269° Goose Bay

Altitude Profile

Advertisement - Login to hide

Weather


0- 5 10 15 20 25 30 35+ Temperature / ° C

Clouds and Precipitation
Forecast for 2017-12-16 18:00 UTC. Updated 2 hours ago

Ground ~20,000 ft ~40,000 ft Winds

BGBW

Details ICAO BGBW (UAK)
Name Narsarsuaq
Region Greenland
Timezone America/Godthab (UTC-3.0)
Stats Elevation 112 ft / 34 m (AMSL)
Location 61.160516° -45.425976°
Runways 1
Magnetic Variation 22.904° W

METAR

BGBW 161750Z 06004KT 030V090 2500 -SN VV015 M03/M05 Q0988

Decode

TAF

Not found

Departure Runways

ID Width Length Bearing (true) Bearing (mag) Surface Threshold Offset Overrun Length
07 148 ft / 45 m 5,921 ft / 1,805 m 40.57° 63.47° Concrete 0 ft / 0 m 0 ft / 0 m
25 148 ft / 45 m 5,921 ft / 1,805 m 220.58° 243.48° Concrete 0 ft / 0 m 279 ft / 85 m

CYYR

Details ICAO CYYR (YYR)
Name Goose Bay
Region Canada
Timezone America/Goose_Bay (UTC-4.0)
Stats Elevation 160 ft / 49 m (AMSL)
Location 53.318820° -60.423890°
Runways 2
Magnetic Variation 20.962° W

METAR

CYYR 161900Z 26015G20KT 15SM FEW040 FEW060 FEW230 M12/M20 A2934 RMK CF1SC1CI1 SH DIST NW SLP939

Decode

TAF

TAF CYYR 161730Z 1618/1718 25018G28KT P6SM FEW040 SCT200 FM162100 25015G25KT P6SM SCT020 BKN050 TEMPO 1621/1708 5SM -SHSN BKN020 OVC050 BECMG 1701/1703 29015KT FM170800 30015G25KT P6SM SCT040 BKN080 TEMPO 1708/1718 P6SM -SHSN BKN040 OVC080 RMK NXT FCST BY 170000Z

Decode

Destination Runways

ID Width Length Bearing (true) Bearing (mag) Surface Threshold Offset Overrun Length
08 209 ft / 64 m 11,055 ft / 3,369 m 54.70° 75.66° Asphalt 0 ft / 0 m 1,000 ft / 305 m
16 200 ft / 61 m 9,515 ft / 2,900 m 132.96° 153.92° Asphalt 0 ft / 0 m 0 ft / 0 m
26 209 ft / 64 m 11,055 ft / 3,369 m 234.73° 255.69° Asphalt 0 ft / 0 m 1,000 ft / 305 m
34 200 ft / 61 m 9,515 ft / 2,900 m 312.99° 333.95° Asphalt 0 ft / 0 m 500 ft / 152 m

Popular Alternatives